To NAV CANADA Home Page Login to a new session Search on AWWS site Disclaimer Vers la page française équivalente Tips FAQ What's new on the site To the Forecasts and Observations / NOTAM section To "File a Flight Plan" website Publications and other links Update of the User's profile FIC Telephone Numbers My Weather Data Folder Route Weather Data Regional Weather Data Local Weather Data To the Forecasts and Observations / NOTAM section
Request Generated 08/06/2020 at 19:35:28 UTC . Weather information available at that time is displayed.


Go to a specific product

Save this request

NOTAM

NOTAM


SIGMET
To the Product Selector

SIGMETS GFACN32

WSCN32 CWEG 061926
SIGMET B4 VALID 061925/062325 CWEG-
CZEG EDMONTON FIR FRQ TS OBS WTN 25 NM OF LINE /N5630 W12026/20 NE CYXJ - /N5826
W12124/45 SE CYYE TOP FL360 MOV NNE 20KT NC
RMK GFACN32 GFACN31
END/WSCN22/CWAO



AIRMET
To the Product Selector

AIRMETS GFACN32

GFACN32 - No AIRMET bulletins in effect



PIREP
To the Product Selector

FIR_WINNIPEG (WG)

WG - PIREP not available



METAR/TAF
To the Product Selector

REGINA INTL/SK    

METAR CYQR 061900Z 16011G19KT 15SM FEW290 29/12 A2981 RMK CI1 SLP096 DENSITY ALT 4100FT=
METAR CYQR 061800Z 16012G18KT 15SM FEW290 29/11 A2982 RMK CI1 CI TR SLP100 DENSITY ALT 4100FT=
METAR CYQR 061700Z 15008KT 110V170 15SM FEW290 27/13 A2984 RMK CI1 CI TR SLP106 DENSITY ALT 3800FT=

TAF CYQR 061738Z 0618/0718 15015KT P6SM SKC
FM070800 14012KT P6SM SCT150 BKN250
FM071600 29015KT P6SM SCT040 BKN100 TEMPO 0716/0718 P6SM -SHRA
BKN040
RMK NXT FCST BY 070000Z=

MOOSE JAW/AIR VICE MARSHAL C.M. MCEWEN/SK    

METAR CYMJ 061900Z 17015KT 15SM FEW120 BKN280 32/09 A2977 RMK AC1CI5 SLP075=
METAR CYMJ 061800Z 13012KT 15SM FEW120 FEW260 31/12 A2980 RMK AC1CI2 SLP083=
METAR CYMJ 061700Z 14011KT 15SM FEW120 FEW260 29/12 A2981 RMK AC1CI2 SLP092=

TAF CYMJ 061730Z 0618/0706 14010KT P6SM FEW120 FEW250
BECMG 0618/0620 15015KT
BECMG 0702/0704 14010KT
RMK NXT FCST BY 070000Z=


RADAR PCPN RATE
To the Product Selector
Pacific Canada      Western Canada     

SATELLITE VISIBLE
To the Product Selector
West Canada      

SATELLITE INFRARED
To the Product Selector
West Canada     

GRAPHICAL FA CLOUDS & WEATHER FORECASTS
To the Product Selector
Graphical FA gfacn32      

GRAPHICAL FA ICING, TURBULENCE & FREEZING LEVEL FORECASTS
To the Product Selector
Graphical FA gfacn32      

FDTEXT Low Level FD. Temperatures are not forecast for the 3,000-foot level.
To the Product Selector
STN YQR - REGINA. SASK for use 3000 6000 9000 12000 18000
FDCN01 CWAO FCST BASED ON 061200 DATA VALID 061800 17-21 1813+17 2010+11 2312+07 2614-08
FDCN02 CWAO FCST BASED ON 061200 DATA VALID 070000 21-06 1614+18 2106+13 2707+07 2414-08
FDCN03 CWAO FCST BASED ON 061200 DATA VALID 071200 06-17 2019+20 1715+14 1819+06 2029-08



Your time UTC time
Weather data provided by Environment Canada and NAV CANADA